sensor_id;sensor_type;location;lat;lon;timestamp;temperature;humidity
33574;DHT22;20085;50.832;4.392;2022-09-21T00:00:03;14.80;98.00
33574;DHT22;20085;50.832;4.392;2022-09-21T00:02:29;14.80;98.00
33574;DHT22;20085;50.832;4.392;2022-09-21T00:04:54;14.90;97.90
33574;DHT22;20085;50.832;4.392;2022-09-21T00:07:20;14.90;97.90
33574;DHT22;20085;50.832;4.392;2022-09-21T00:09:45;14.80;98.00
33574;DHT22;20085;50.832;4.392;2022-09-21T00:12:11;14.80;98.10
33574;DHT22;20085;50.832;4.392;2022-09-21T00:14:37;14.70;98.20
33574;DHT22;20085;50.832;4.392;2022-09-21T00:17:02;14.70;98.20
33574;DHT22;20085;50.832;4.392;2022-09-21T00:19:28;14.70;98.20
33574;DHT22;20085;50.832;4.392;2022-09-21T00:21:54;14.70;98.30
33574;DHT22;20085;50.832;4.392;2022-09-21T00:24:21;14.70;98.30
33574;DHT22;20085;50.832;4.392;2022-09-21T00:26:46;14.60;98.40
33574;DHT22;20085;50.832;4.392;2022-09-21T00:29:12;14.60;98.40
33574;DHT22;20085;50.832;4.392;2022-09-21T00:31:38;14.60;98.40
33574;DHT22;20085;50.832;4.392;2022-09-21T00:34:04;14.60;98.40
33574;DHT22;20085;50.832;4.392;2022-09-21T00:36:32;14.60;98.40
33574;DHT22;20085;50.832;4.392;2022-09-21T00:39:00;14.60;98.40
33574;DHT22;20085;50.832;4.392;2022-09-21T00:41:27;14.70;98.70
33574;DHT22;20085;50.832;4.392;2022-09-21T00:46:41;14.80;98.20
33574;DHT22;20085;50.832;4.392;2022-09-21T00:49:08;14.70;98.30
33574;DHT22;20085;50.832;4.392;2022-09-21T00:51:35;14.70;98.30
33574;DHT22;20085;50.832;4.392;2022-09-21T00:54:05;14.60;98.40
33574;DHT22;20085;50.832;4.392;2022-09-21T00:56:33;14.60;98.50
33574;DHT22;20085;50.832;4.392;2022-09-21T00:59:00;14.60;98.40
33574;DHT22;20085;50.832;4.392;2022-09-21T01:01:25;14.50;98.50
33574;DHT22;20085;50.832;4.392;2022-09-21T01:03:52;14.50;98.50
33574;DHT22;20085;50.832;4.392;2022-09-21T01:06:22;14.50;98.60
33574;DHT22;20085;50.832;4.392;2022-09-21T01:08:51;14.40;98.70
33574;DHT22;20085;50.832;4.392;2022-09-21T01:11:33;14.50;98.70
33574;DHT22;20085;50.832;4.392;2022-09-21T01:14:20;14.50;98.80
33574;DHT22;20085;50.832;4.392;2022-09-21T01:31:02;14.30;99.10
33574;DHT22;20085;50.832;4.392;2022-09-21T01:33:45;14.40;99.10
33574;DHT22;20085;50.832;4.392;2022-09-21T01:36:15;14.30;99.00
33574;DHT22;20085;50.832;4.392;2022-09-21T01:38:53;14.30;99.10
33574;DHT22;20085;50.832;4.392;2022-09-21T01:41:22;14.20;99.10
33574;DHT22;20085;50.832;4.392;2022-09-21T01:43:53;14.20;99.10
33574;DHT22;20085;50.832;4.392;2022-09-21T01:46:21;14.20;99.10
33574;DHT22;20085;50.832;4.392;2022-09-21T01:48:52;14.20;99.20
33574;DHT22;20085;50.832;4.392;2022-09-21T01:51:26;14.20;99.30
33574;DHT22;20085;50.832;4.392;2022-09-21T01:53:59;14.10;99.30
33574;DHT22;20085;50.832;4.392;2022-09-21T01:56:32;14.10;99.40
33574;DHT22;20085;50.832;4.392;2022-09-21T01:59:06;14.10;99.50
33574;DHT22;20085;50.832;4.392;2022-09-21T02:01:40;14.10;99.40
33574;DHT22;20085;50.832;4.392;2022-09-21T02:04:09;14.10;99.50
33574;DHT22;20085;50.832;4.392;2022-09-21T02:06:38;14.10;99.40
33574;DHT22;20085;50.832;4.392;2022-09-21T02:09:05;14.10;99.40
33574;DHT22;20085;50.832;4.392;2022-09-21T02:11:31;14.00;99.30
33574;DHT22;20085;50.832;4.392;2022-09-21T02:13:57;14.00;99.40
33574;DHT22;20085;50.832;4.392;2022-09-21T02:16:36;14.00;99.50
33574;DHT22;20085;50.832;4.392;2022-09-21T02:19:26;14.00;99.50
33574;DHT22;20085;50.832;4.392;2022-09-21T02:22:06;14.00;99.50
33574;DHT22;20085;50.832;4.392;2022-09-21T02:24:41;14.00;99.80
33574;DHT22;20085;50.832;4.392;2022-09-21T02:35:12;14.00;99.50
33574;DHT22;20085;50.832;4.392;2022-09-21T02:37:49;14.00;99.30
33574;DHT22;20085;50.832;4.392;2022-09-21T02:40:40;14.00;99.40
33574;DHT22;20085;50.832;4.392;2022-09-21T02:43:18;13.90;99.40
33574;DHT22;20085;50.832;4.392;2022-09-21T02:45:56;13.80;99.50
33574;DHT22;20085;50.832;4.392;2022-09-21T02:48:31;13.80;99.50
33574;DHT22;20085;50.832;4.392;2022-09-21T02:51:03;13.80;99.50
33574;DHT22;20085;50.832;4.392;2022-09-21T02:53:33;13.80;99.30
33574;DHT22;20085;50.832;4.392;2022-09-21T02:56:01;13.90;99.20
33574;DHT22;20085;50.832;4.392;2022-09-21T02:58:29;13.90;99.00
33574;DHT22;20085;50.832;4.392;2022-09-21T03:00:57;13.90;99.00
33574;DHT22;20085;50.832;4.392;2022-09-21T03:03:24;13.90;99.10
33574;DHT22;20085;50.832;4.392;2022-09-21T03:05:53;13.90;99.10
33574;DHT22;20085;50.832;4.392;2022-09-21T03:08:19;13.80;99.20
33574;DHT22;20085;50.832;4.392;2022-09-21T03:10:45;13.80;99.30
33574;DHT22;20085;50.832;4.392;2022-09-21T03:13:11;13.80;99.30
33574;DHT22;20085;50.832;4.392;2022-09-21T03:15:40;13.70;99.40
33574;DHT22;20085;50.832;4.392;2022-09-21T03:18:07;13.70;99.40
33574;DHT22;20085;50.832;4.392;2022-09-21T03:20:36;13.80;99.30
33574;DHT22;20085;50.832;4.392;2022-09-21T03:23:02;13.70;99.60
33574;DHT22;20085;50.832;4.392;2022-09-21T03:25:28;13.70;99.40
33574;DHT22;20085;50.832;4.392;2022-09-21T03:27:55;13.70;99.40
33574;DHT22;20085;50.832;4.392;2022-09-21T03:30:22;13.80;99.20
33574;DHT22;20085;50.832;4.392;2022-09-21T03:32:52;13.80;99.00
33574;DHT22;20085;50.832;4.392;2022-09-21T03:35:20;13.70;99.20
33574;DHT22;20085;50.832;4.392;2022-09-21T03:37:46;13.60;99.30
33574;DHT22;20085;50.832;4.392;2022-09-21T03:40:13;13.60;99.40
33574;DHT22;20085;50.832;4.392;2022-09-21T03:42:40;13.60;99.30
33574;DHT22;20085;50.832;4.392;2022-09-21T03:45:07;13.60;99.30
33574;DHT22;20085;50.832;4.392;2022-09-21T03:47:33;13.70;99.20
33574;DHT22;20085;50.832;4.392;2022-09-21T03:49:59;13.70;99.00
33574;DHT22;20085;50.832;4.392;2022-09-21T03:52:26;13.60;99.00
33574;DHT22;20085;50.832;4.392;2022-09-21T03:54:51;13.60;99.30
33574;DHT22;20085;50.832;4.392;2022-09-21T03:57:17;13.50;99.70
33574;DHT22;20085;50.832;4.392;2022-09-21T03:59:42;13.50;99.40
33574;DHT22;20085;50.832;4.392;2022-09-21T04:02:08;13.60;99.40
33574;DHT22;20085;50.832;4.392;2022-09-21T04:04:34;13.70;99.20
33574;DHT22;20085;50.832;4.392;2022-09-21T04:06:59;13.70;99.10
33574;DHT22;20085;50.832;4.392;2022-09-21T04:09:25;13.60;99.00
33574;DHT22;20085;50.832;4.392;2022-09-21T04:11:51;13.70;99.10
33574;DHT22;20085;50.832;4.392;2022-09-21T04:14:18;13.70;98.90
33574;DHT22;20085;50.832;4.392;2022-09-21T04:16:45;13.60;99.00
33574;DHT22;20085;50.832;4.392;2022-09-21T04:19:11;13.60;99.10
33574;DHT22;20085;50.832;4.392;2022-09-21T04:21:36;13.60;99.20
33574;DHT22;20085;50.832;4.392;2022-09-21T04:24:02;13.50;99.20
33574;DHT22;20085;50.832;4.392;2022-09-21T04:26:32;13.50;99.40
33574;DHT22;20085;50.832;4.392;2022-09-21T04:28:59;13.50;99.30
33574;DHT22;20085;50.832;4.392;2022-09-21T04:31:25;13.50;99.40
33574;DHT22;20085;50.832;4.392;2022-09-21T04:33:53;13.50;99.40
33574;DHT22;20085;50.832;4.392;2022-09-21T04:36:24;13.60;99.50
33574;DHT22;20085;50.832;4.392;2022-09-21T04:38:53;13.50;99.10
33574;DHT22;20085;50.832;4.392;2022-09-21T04:41:19;13.60;99.20
33574;DHT22;20085;50.832;4.392;2022-09-21T04:43:46;13.50;99.30
33574;DHT22;20085;50.832;4.392;2022-09-21T04:46:14;13.40;99.50
33574;DHT22;20085;50.832;4.392;2022-09-21T04:48:44;13.40;99.50
33574;DHT22;20085;50.832;4.392;2022-09-21T04:51:11;13.30;99.50
33574;DHT22;20085;50.832;4.392;2022-09-21T04:53:38;13.30;99.60
33574;DHT22;20085;50.832;4.392;2022-09-21T04:56:06;13.30;99.60
33574;DHT22;20085;50.832;4.392;2022-09-21T04:58:32;13.40;99.50
33574;DHT22;20085;50.832;4.392;2022-09-21T05:00:58;13.40;99.40
33574;DHT22;20085;50.832;4.392;2022-09-21T05:03:24;13.40;99.40
33574;DHT22;20085;50.832;4.392;2022-09-21T05:05:53;13.30;99.50
33574;DHT22;20085;50.832;4.392;2022-09-21T05:08:20;13.30;99.60
33574;DHT22;20085;50.832;4.392;2022-09-21T05:11:17;13.30;99.60
33574;DHT22;20085;50.832;4.392;2022-09-21T05:13:44;13.30;99.60
33574;DHT22;20085;50.832;4.392;2022-09-21T05:16:48;13.50;99.50
33574;DHT22;20085;50.832;4.392;2022-09-21T05:19:34;13.40;99.50
33574;DHT22;20085;50.832;4.392;2022-09-21T05:22:00;13.40;99.50
33574;DHT22;20085;50.832;4.392;2022-09-21T05:24:25;13.40;99.40
33574;DHT22;20085;50.832;4.392;2022-09-21T05:26:58;13.40;99.50
33574;DHT22;20085;50.832;4.392;2022-09-21T05:29:25;13.40;99.60
33574;DHT22;20085;50.832;4.392;2022-09-21T05:32:19;13.40;99.30
33574;DHT22;20085;50.832;4.392;2022-09-21T05:37:51;13.40;99.30
33574;DHT22;20085;50.832;4.392;2022-09-21T05:40:24;13.50;99.20
33574;DHT22;20085;50.832;4.392;2022-09-21T05:42:51;13.40;99.40
33574;DHT22;20085;50.832;4.392;2022-09-21T05:45:20;13.30;99.70
33574;DHT22;20085;50.832;4.392;2022-09-21T05:56:59;13.40;99.70
33574;DHT22;20085;50.832;4.392;2022-09-21T05:59:58;13.40;99.70
33574;DHT22;20085;50.832;4.392;2022-09-21T06:04:58;13.20;99.90
33574;DHT22;20085;50.832;4.392;2022-09-21T06:07:26;13.30;99.90
33574;DHT22;20085;50.832;4.392;2022-09-21T06:09:51;13.30;99.90
33574;DHT22;20085;50.832;4.392;2022-09-21T06:12:17;13.40;99.90
33574;DHT22;20085;50.832;4.392;2022-09-21T06:14:42;13.40;99.90
33574;DHT22;20085;50.832;4.392;2022-09-21T06:17:09;13.40;99.90
33574;DHT22;20085;50.832;4.392;2022-09-21T06:19:35;13.40;99.90
33574;DHT22;20085;50.832;4.392;2022-09-21T06:22:00;13.40;99.90
33574;DHT22;20085;50.832;4.392;2022-09-21T06:24:26;13.40;99.90
33574;DHT22;20085;50.832;4.392;2022-09-21T06:26:51;13.40;99.90
33574;DHT22;20085;50.832;4.392;2022-09-21T06:29:17;13.40;99.90
33574;DHT22;20085;50.832;4.392;2022-09-21T06:31:51;13.40;99.90
33574;DHT22;20085;50.832;4.392;2022-09-21T06:34:17;13.40;99.90
33574;DHT22;20085;50.832;4.392;2022-09-21T06:36:43;13.40;99.90
33574;DHT22;20085;50.832;4.392;2022-09-21T06:39:10;13.40;99.90
33574;DHT22;20085;50.832;4.392;2022-09-21T06:41:35;13.40;99.90
33574;DHT22;20085;50.832;4.392;2022-09-21T06:44:01;13.50;99.90
33574;DHT22;20085;50.832;4.392;2022-09-21T06:46:27;13.50;99.90
33574;DHT22;20085;50.832;4.392;2022-09-21T06:48:52;13.50;99.90
33574;DHT22;20085;50.832;4.392;2022-09-21T06:51:18;13.60;99.90
33574;DHT22;20085;50.832;4.392;2022-09-21T06:53:46;13.60;99.90
33574;DHT22;20085;50.832;4.392;2022-09-21T06:56:12;13.60;99.90
33574;DHT22;20085;50.832;4.392;2022-09-21T06:58:38;13.60;99.90
33574;DHT22;20085;50.832;4.392;2022-09-21T07:03:31;13.70;99.90
33574;DHT22;20085;50.832;4.392;2022-09-21T07:05:56;13.70;99.90
33574;DHT22;20085;50.832;4.392;2022-09-21T07:08:22;13.80;99.90
33574;DHT22;20085;50.832;4.392;2022-09-21T07:10:48;13.70;99.90
33574;DHT22;20085;50.832;4.392;2022-09-21T07:13:14;13.70;99.90
33574;DHT22;20085;50.832;4.392;2022-09-21T07:15:42;13.70;99.90
33574;DHT22;20085;50.832;4.392;2022-09-21T07:18:12;13.70;99.90
33574;DHT22;20085;50.832;4.392;2022-09-21T07:20:38;13.80;99.90
33574;DHT22;20085;50.832;4.392;2022-09-21T07:23:11;13.80;99.90
33574;DHT22;20085;50.832;4.392;2022-09-21T07:25:42;13.90;99.90
33574;DHT22;20085;50.832;4.392;2022-09-21T07:28:09;13.80;99.90
33574;DHT22;20085;50.832;4.392;2022-09-21T07:30:38;13.90;99.90
33574;DHT22;20085;50.832;4.392;2022-09-21T07:33:04;13.80;99.90
33574;DHT22;20085;50.832;4.392;2022-09-21T07:35:30;13.90;99.90
33574;DHT22;20085;50.832;4.392;2022-09-21T07:38:06;13.90;99.90
33574;DHT22;20085;50.832;4.392;2022-09-21T07:40:33;14.00;99.90
33574;DHT22;20085;50.832;4.392;2022-09-21T07:42:59;14.00;99.90
33574;DHT22;20085;50.832;4.392;2022-09-21T07:45:29;14.00;99.90
33574;DHT22;20085;50.832;4.392;2022-09-21T07:48:05;14.00;99.90
33574;DHT22;20085;50.832;4.392;2022-09-21T07:50:32;14.00;99.90
33574;DHT22;20085;50.832;4.392;2022-09-21T07:53:01;14.00;99.90
33574;DHT22;20085;50.832;4.392;2022-09-21T07:55:27;14.10;99.90
33574;DHT22;20085;50.832;4.392;2022-09-21T07:57:53;14.00;99.90
33574;DHT22;20085;50.832;4.392;2022-09-21T08:00:37;14.00;99.90
33574;DHT22;20085;50.832;4.392;2022-09-21T08:03:04;14.10;99.90
33574;DHT22;20085;50.832;4.392;2022-09-21T08:05:31;14.10;99.90
33574;DHT22;20085;50.832;4.392;2022-09-21T08:07:57;14.10;99.90
33574;DHT22;20085;50.832;4.392;2022-09-21T08:10:23;14.20;99.90
33574;DHT22;20085;50.832;4.392;2022-09-21T08:12:50;14.20;99.90
33574;DHT22;20085;50.832;4.392;2022-09-21T08:15:16;14.20;99.90
33574;DHT22;20085;50.832;4.392;2022-09-21T08:17:42;14.20;99.90
33574;DHT22;20085;50.832;4.392;2022-09-21T08:20:09;14.30;99.90
33574;DHT22;20085;50.832;4.392;2022-09-21T08:22:34;14.30;99.90
33574;DHT22;20085;50.832;4.392;2022-09-21T08:25:00;14.40;99.90
33574;DHT22;20085;50.832;4.392;2022-09-21T08:27:25;14.50;99.90
33574;DHT22;20085;50.832;4.392;2022-09-21T08:29:51;14.50;99.90
33574;DHT22;20085;50.832;4.392;2022-09-21T08:32:17;14.50;99.90
33574;DHT22;20085;50.832;4.392;2022-09-21T08:34:42;14.50;99.80
33574;DHT22;20085;50.832;4.392;2022-09-21T08:37:08;14.50;99.60
33574;DHT22;20085;50.832;4.392;2022-09-21T08:39:34;14.50;99.30
33574;DHT22;20085;50.832;4.392;2022-09-21T08:44:42;14.50;98.60
33574;DHT22;20085;50.832;4.392;2022-09-21T08:47:18;14.70;98.30
33574;DHT22;20085;50.832;4.392;2022-09-21T08:49:54;14.60;98.10
33574;DHT22;20085;50.832;4.392;2022-09-21T08:52:22;14.40;97.90
33574;DHT22;20085;50.832;4.392;2022-09-21T08:55:17;14.40;98.10
33574;DHT22;20085;50.832;4.392;2022-09-21T08:57:43;14.40;98.20
33574;DHT22;20085;50.832;4.392;2022-09-21T09:00:16;14.60;98.00
33574;DHT22;20085;50.832;4.392;2022-09-21T09:03:27;14.70;97.80
33574;DHT22;20085;50.832;4.392;2022-09-21T09:06:12;14.80;97.60
33574;DHT22;20085;50.832;4.392;2022-09-21T09:08:47;15.00;97.30
33574;DHT22;20085;50.832;4.392;2022-09-21T09:11:36;15.10;97.00
33574;DHT22;20085;50.832;4.392;2022-09-21T09:19:50;15.30;97.20
33574;DHT22;20085;50.832;4.392;2022-09-21T09:22:24;15.30;97.10
33574;DHT22;20085;50.832;4.392;2022-09-21T09:24:55;15.40;96.60
33574;DHT22;20085;50.832;4.392;2022-09-21T09:27:32;15.30;96.40
33574;DHT22;20085;50.832;4.392;2022-09-21T09:30:16;15.20;96.80
33574;DHT22;20085;50.832;4.392;2022-09-21T09:32:48;15.30;96.80
33574;DHT22;20085;50.832;4.392;2022-09-21T09:35:45;15.40;96.60
33574;DHT22;20085;50.832;4.392;2022-09-21T09:38:28;15.50;96.70
33574;DHT22;20085;50.832;4.392;2022-09-21T09:49:44;15.60;96.00
33574;DHT22;20085;50.832;4.392;2022-09-21T09:52:14;15.70;95.80
33574;DHT22;20085;50.832;4.392;2022-09-21T09:54:40;15.70;95.00
33574;DHT22;20085;50.832;4.392;2022-09-21T09:57:06;15.90;94.20
33574;DHT22;20085;50.832;4.392;2022-09-21T09:59:43;15.90;94.30
33574;DHT22;20085;50.832;4.392;2022-09-21T10:07:45;16.00;93.40
33574;DHT22;20085;50.832;4.392;2022-09-21T10:10:33;16.00;93.50
33574;DHT22;20085;50.832;4.392;2022-09-21T10:13:12;16.00;93.40
33574;DHT22;20085;50.832;4.392;2022-09-21T10:15:49;16.10;93.20
33574;DHT22;20085;50.832;4.392;2022-09-21T10:21:08;16.10;93.10
33574;DHT22;20085;50.832;4.392;2022-09-21T10:23:48;16.30;92.80
33574;DHT22;20085;50.832;4.392;2022-09-21T10:26:14;16.30;92.70
33574;DHT22;20085;50.832;4.392;2022-09-21T10:29:01;16.30;92.90
33574;DHT22;20085;50.832;4.392;2022-09-21T10:31:30;16.40;92.70
33574;DHT22;20085;50.832;4.392;2022-09-21T10:36:35;16.60;92.50
33574;DHT22;20085;50.832;4.392;2022-09-21T10:42:03;16.70;92.20
33574;DHT22;20085;50.832;4.392;2022-09-21T10:44:38;16.70;91.60
33574;DHT22;20085;50.832;4.392;2022-09-21T10:47:22;16.70;91.70
33574;DHT22;20085;50.832;4.392;2022-09-21T10:49:51;16.60;91.80
33574;DHT22;20085;50.832;4.392;2022-09-21T10:52:24;16.60;91.70
33574;DHT22;20085;50.832;4.392;2022-09-21T10:54:53;16.60;91.70
33574;DHT22;20085;50.832;4.392;2022-09-21T10:57:21;16.50;91.80
33574;DHT22;20085;50.832;4.392;2022-09-21T10:59:48;16.50;91.80
33574;DHT22;20085;50.832;4.392;2022-09-21T11:02:34;16.50;91.70
33574;DHT22;20085;50.832;4.392;2022-09-21T11:05:15;16.40;91.90
33574;DHT22;20085;50.832;4.392;2022-09-21T11:11:05;16.60;91.40
33574;DHT22;20085;50.832;4.392;2022-09-21T11:14:29;16.60;91.40
33574;DHT22;20085;50.832;4.392;2022-09-21T11:19:43;16.60;90.70
33574;DHT22;20085;50.832;4.392;2022-09-21T11:25:08;16.70;90.10
33574;DHT22;20085;50.832;4.392;2022-09-21T11:27:44;16.90;90.00
33574;DHT22;20085;50.832;4.392;2022-09-21T11:30:18;16.90;90.10
33574;DHT22;20085;50.832;4.392;2022-09-21T11:35:46;17.10;89.40
33574;DHT22;20085;50.832;4.392;2022-09-21T11:38:56;17.20;88.40
33574;DHT22;20085;50.832;4.392;2022-09-21T11:46:49;17.40;87.30
33574;DHT22;20085;50.832;4.392;2022-09-21T11:58:03;17.70;86.00
33574;DHT22;20085;50.832;4.392;2022-09-21T12:03:43;17.90;81.90
33574;DHT22;20085;50.832;4.392;2022-09-21T12:06:39;17.90;80.10
33574;DHT22;20085;50.832;4.392;2022-09-21T12:11:48;18.20;79.90
33574;DHT22;20085;50.832;4.392;2022-09-21T12:14:28;18.30;81.40
33574;DHT22;20085;50.832;4.392;2022-09-21T12:22:37;18.50;79.10
33574;DHT22;20085;50.832;4.392;2022-09-21T12:27:48;18.80;79.00
33574;DHT22;20085;50.832;4.392;2022-09-21T12:30:18;19.00;79.80
33574;DHT22;20085;50.832;4.392;2022-09-21T12:33:05;19.30;78.90
33574;DHT22;20085;50.832;4.392;2022-09-21T12:35:54;19.40;77.60
33574;DHT22;20085;50.832;4.392;2022-09-21T12:38:29;19.40;75.40
33574;DHT22;20085;50.832;4.392;2022-09-21T12:46:47;19.90;74.70
33574;DHT22;20085;50.832;4.392;2022-09-21T12:49:25;20.00;74.10
33574;DHT22;20085;50.832;4.392;2022-09-21T12:51:57;20.00;73.60
33574;DHT22;20085;50.832;4.392;2022-09-21T12:57:15;20.00;73.10
33574;DHT22;20085;50.832;4.392;2022-09-21T13:00:03;20.10;72.00
33574;DHT22;20085;50.832;4.392;2022-09-21T13:02:39;20.30;71.40
33574;DHT22;20085;50.832;4.392;2022-09-21T13:10:45;20.20;72.20
33574;DHT22;20085;50.832;4.392;2022-09-21T13:13:39;20.20;72.30
33574;DHT22;20085;50.832;4.392;2022-09-21T13:16:26;20.00;71.70
33574;DHT22;20085;50.832;4.392;2022-09-21T13:19:02;19.90;71.30
33574;DHT22;20085;50.832;4.392;2022-09-21T13:21:30;19.70;71.30
33574;DHT22;20085;50.832;4.392;2022-09-21T13:24:01;19.60;71.50
33574;DHT22;20085;50.832;4.392;2022-09-21T13:26:34;19.60;72.70
33574;DHT22;20085;50.832;4.392;2022-09-21T13:31:59;19.50;73.40
33574;DHT22;20085;50.832;4.392;2022-09-21T13:34:33;19.60;72.40
33574;DHT22;20085;50.832;4.392;2022-09-21T13:39:47;19.50;73.80
33574;DHT22;20085;50.832;4.392;2022-09-21T13:42:47;19.20;73.30
33574;DHT22;20085;50.832;4.392;2022-09-21T13:47:48;19.10;74.40
33574;DHT22;20085;50.832;4.392;2022-09-21T13:53:18;18.90;75.80
33574;DHT22;20085;50.832;4.392;2022-09-21T13:55:50;18.80;75.70
33574;DHT22;20085;50.832;4.392;2022-09-21T13:58:32;18.80;76.10
33574;DHT22;20085;50.832;4.392;2022-09-21T14:01:06;18.80;76.50
33574;DHT22;20085;50.832;4.392;2022-09-21T14:03:39;18.70;76.70
33574;DHT22;20085;50.832;4.392;2022-09-21T14:06:24;18.80;76.40
33574;DHT22;20085;50.832;4.392;2022-09-21T14:09:28;18.90;76.00
33574;DHT22;20085;50.832;4.392;2022-09-21T14:12:02;18.90;76.60
33574;DHT22;20085;50.832;4.392;2022-09-21T14:14:32;18.90;75.90
33574;DHT22;20085;50.832;4.392;2022-09-21T14:17:00;19.00;75.60
33574;DHT22;20085;50.832;4.392;2022-09-21T14:27:31;18.90;75.60
33574;DHT22;20085;50.832;4.392;2022-09-21T14:32:36;18.90;75.80
33574;DHT22;20085;50.832;4.392;2022-09-21T14:35:11;18.80;76.10
33574;DHT22;20085;50.832;4.392;2022-09-21T14:37:51;18.80;77.00
33574;DHT22;20085;50.832;4.392;2022-09-21T14:40:23;18.70;76.40
33574;DHT22;20085;50.832;4.392;2022-09-21T14:42:51;18.80;76.20
33574;DHT22;20085;50.832;4.392;2022-09-21T14:45:23;18.80;76.10
33574;DHT22;20085;50.832;4.392;2022-09-21T14:48:07;18.80;75.50
33574;DHT22;20085;50.832;4.392;2022-09-21T14:50:46;18.60;73.60
33574;DHT22;20085;50.832;4.392;2022-09-21T15:01:40;18.70;72.50
33574;DHT22;20085;50.832;4.392;2022-09-21T15:10:11;18.80;71.60
33574;DHT22;20085;50.832;4.392;2022-09-21T15:12:58;18.90;71.50
33574;DHT22;20085;50.832;4.392;2022-09-21T15:15:58;19.00;71.40
33574;DHT22;20085;50.832;4.392;2022-09-21T15:18:26;19.10;71.80
33574;DHT22;20085;50.832;4.392;2022-09-21T15:21:01;19.10;71.10
33574;DHT22;20085;50.832;4.392;2022-09-21T15:23:33;19.20;71.00
33574;DHT22;20085;50.832;4.392;2022-09-21T15:26:06;19.20;70.70
33574;DHT22;20085;50.832;4.392;2022-09-21T15:28:44;19.30;70.40
33574;DHT22;20085;50.832;4.392;2022-09-21T15:31:13;19.30;70.40
33574;DHT22;20085;50.832;4.392;2022-09-21T15:33:40;19.40;70.00
33574;DHT22;20085;50.832;4.392;2022-09-21T15:36:08;19.40;71.20
33574;DHT22;20085;50.832;4.392;2022-09-21T15:38:35;19.40;70.40
33574;DHT22;20085;50.832;4.392;2022-09-21T15:41:03;19.30;71.10
33574;DHT22;20085;50.832;4.392;2022-09-21T15:43:31;19.30;71.90
33574;DHT22;20085;50.832;4.392;2022-09-21T15:46:04;19.20;71.90
33574;DHT22;20085;50.832;4.392;2022-09-21T15:48:40;19.10;71.60
33574;DHT22;20085;50.832;4.392;2022-09-21T15:51:39;19.00;71.30
33574;DHT22;20085;50.832;4.392;2022-09-21T15:54:08;18.90;71.50
33574;DHT22;20085;50.832;4.392;2022-09-21T15:56:41;18.90;72.60
33574;DHT22;20085;50.832;4.392;2022-09-21T15:59:13;18.80;71.70
33574;DHT22;20085;50.832;4.392;2022-09-21T16:01:45;18.80;72.00
33574;DHT22;20085;50.832;4.392;2022-09-21T16:04:21;18.80;71.90
33574;DHT22;20085;50.832;4.392;2022-09-21T16:09:57;18.60;71.60
33574;DHT22;20085;50.832;4.392;2022-09-21T16:12:41;18.60;71.40
33574;DHT22;20085;50.832;4.392;2022-09-21T16:15:35;18.50;71.50
33574;DHT22;20085;50.832;4.392;2022-09-21T16:18:02;18.60;70.90
33574;DHT22;20085;50.832;4.392;2022-09-21T16:20:44;18.50;70.20
33574;DHT22;20085;50.832;4.392;2022-09-21T16:23:22;18.40;71.00
33574;DHT22;20085;50.832;4.392;2022-09-21T16:25:55;18.40;71.30
33574;DHT22;20085;50.832;4.392;2022-09-21T16:28:40;18.40;71.90
33574;DHT22;20085;50.832;4.392;2022-09-21T16:31:39;18.40;72.20
33574;DHT22;20085;50.832;4.392;2022-09-21T16:34:22;18.40;72.30
33574;DHT22;20085;50.832;4.392;2022-09-21T16:36:56;18.50;71.70
33574;DHT22;20085;50.832;4.392;2022-09-21T16:39:22;18.40;71.50
33574;DHT22;20085;50.832;4.392;2022-09-21T16:44:21;18.50;71.30
33574;DHT22;20085;50.832;4.392;2022-09-21T16:47:01;18.50;71.20
33574;DHT22;20085;50.832;4.392;2022-09-21T16:49:30;18.50;71.80
33574;DHT22;20085;50.832;4.392;2022-09-21T16:51:57;18.50;71.40
33574;DHT22;20085;50.832;4.392;2022-09-21T16:54:23;18.50;71.90
33574;DHT22;20085;50.832;4.392;2022-09-21T16:56:54;18.50;72.20
33574;DHT22;20085;50.832;4.392;2022-09-21T16:59:20;18.50;72.20
33574;DHT22;20085;50.832;4.392;2022-09-21T17:01:50;18.50;72.20
33574;DHT22;20085;50.832;4.392;2022-09-21T17:04:18;18.50;72.40
33574;DHT22;20085;50.832;4.392;2022-09-21T17:06:44;18.50;72.80
33574;DHT22;20085;50.832;4.392;2022-09-21T17:11:43;18.50;72.90
33574;DHT22;20085;50.832;4.392;2022-09-21T17:14:10;18.40;73.40
33574;DHT22;20085;50.832;4.392;2022-09-21T17:16:42;18.40;73.70
33574;DHT22;20085;50.832;4.392;2022-09-21T17:19:08;18.30;74.50
33574;DHT22;20085;50.832;4.392;2022-09-21T17:21:34;18.30;75.20
33574;DHT22;20085;50.832;4.392;2022-09-21T17:24:00;18.30;75.60
33574;DHT22;20085;50.832;4.392;2022-09-21T17:26:25;18.30;75.80
33574;DHT22;20085;50.832;4.392;2022-09-21T17:28:52;18.30;76.10
33574;DHT22;20085;50.832;4.392;2022-09-21T17:31:21;18.30;77.10
33574;DHT22;20085;50.832;4.392;2022-09-21T17:33:48;18.30;76.30
33574;DHT22;20085;50.832;4.392;2022-09-21T17:36:15;18.30;76.40
33574;DHT22;20085;50.832;4.392;2022-09-21T17:38:41;18.30;76.80
33574;DHT22;20085;50.832;4.392;2022-09-21T17:46:57;18.10;77.80
33574;DHT22;20085;50.832;4.392;2022-09-21T17:49:25;18.10;77.90
33574;DHT22;20085;50.832;4.392;2022-09-21T17:51:50;18.10;78.30
33574;DHT22;20085;50.832;4.392;2022-09-21T17:54:35;18.00;78.30
33574;DHT22;20085;50.832;4.392;2022-09-21T17:59:52;18.00;78.70
33574;DHT22;20085;50.832;4.392;2022-09-21T18:02:22;18.00;79.10
33574;DHT22;20085;50.832;4.392;2022-09-21T18:04:52;17.90;79.60
33574;DHT22;20085;50.832;4.392;2022-09-21T18:07:22;17.90;80.80
33574;DHT22;20085;50.832;4.392;2022-09-21T18:09:49;17.90;80.10
33574;DHT22;20085;50.832;4.392;2022-09-21T18:15:27;18.00;80.70
33574;DHT22;20085;50.832;4.392;2022-09-21T18:18:11;18.00;80.40
33574;DHT22;20085;50.832;4.392;2022-09-21T18:23:40;17.90;80.40
33574;DHT22;20085;50.832;4.392;2022-09-21T18:26:17;17.90;80.20
33574;DHT22;20085;50.832;4.392;2022-09-21T18:28:46;17.90;80.00
33574;DHT22;20085;50.832;4.392;2022-09-21T18:31:46;17.90;80.30
33574;DHT22;20085;50.832;4.392;2022-09-21T18:34:34;17.80;80.60
33574;DHT22;20085;50.832;4.392;2022-09-21T18:37:20;17.90;80.70
33574;DHT22;20085;50.832;4.392;2022-09-21T18:40:15;17.90;81.00
33574;DHT22;20085;50.832;4.392;2022-09-21T18:43:34;17.80;81.10
33574;DHT22;20085;50.832;4.392;2022-09-21T18:46:11;17.70;81.10
33574;DHT22;20085;50.832;4.392;2022-09-21T18:54:01;17.70;82.00
33574;DHT22;20085;50.832;4.392;2022-09-21T18:56:35;17.70;82.40
33574;DHT22;20085;50.832;4.392;2022-09-21T18:59:02;17.60;82.60
33574;DHT22;20085;50.832;4.392;2022-09-21T19:01:29;17.60;82.70
33574;DHT22;20085;50.832;4.392;2022-09-21T19:03:59;17.60;83.10
33574;DHT22;20085;50.832;4.392;2022-09-21T19:15:27;17.50;84.60
33574;DHT22;20085;50.832;4.392;2022-09-21T19:21:42;17.40;85.40
33574;DHT22;20085;50.832;4.392;2022-09-21T19:29:55;17.10;87.10